sensor_id;sensor_type;location;lat;lon;timestamp;temperature;humidity
652;DHT22;310;48.490;9.200;2023-08-20T00:01:38;26.60;42.80
652;DHT22;310;48.490;9.200;2023-08-20T00:04:04;26.60;43.40
652;DHT22;310;48.490;9.200;2023-08-20T00:06:30;26.60;43.00
652;DHT22;310;48.490;9.200;2023-08-20T00:08:56;26.50;43.20
652;DHT22;310;48.490;9.200;2023-08-20T00:11:21;26.50;43.10
652;DHT22;310;48.490;9.200;2023-08-20T00:13:47;26.40;43.60
652;DHT22;310;48.490;9.200;2023-08-20T00:16:13;26.30;44.70
652;DHT22;310;48.490;9.200;2023-08-20T00:18:39;26.30;44.60
652;DHT22;310;48.490;9.200;2023-08-20T00:21:05;26.60;42.60
652;DHT22;310;48.490;9.200;2023-08-20T00:23:31;26.80;41.30
652;DHT22;310;48.490;9.200;2023-08-20T00:25:57;26.80;41.70
652;DHT22;310;48.490;9.200;2023-08-20T00:28:23;26.60;42.70
652;DHT22;310;48.490;9.200;2023-08-20T00:30:48;26.40;43.60
652;DHT22;310;48.490;9.200;2023-08-20T00:33:14;26.40;43.80
652;DHT22;310;48.490;9.200;2023-08-20T00:35:40;26.30;44.10
652;DHT22;310;48.490;9.200;2023-08-20T00:38:06;26.40;43.80
652;DHT22;310;48.490;9.200;2023-08-20T00:40:31;26.30;44.10
652;DHT22;310;48.490;9.200;2023-08-20T00:42:57;26.30;44.20
652;DHT22;310;48.490;9.200;2023-08-20T00:45:23;26.30;44.10
652;DHT22;310;48.490;9.200;2023-08-20T00:47:50;26.40;44.00
652;DHT22;310;48.490;9.200;2023-08-20T00:50:16;26.40;44.70
652;DHT22;310;48.490;9.200;2023-08-20T00:52:42;26.30;44.50
652;DHT22;310;48.490;9.200;2023-08-20T00:55:11;26.30;44.30
652;DHT22;310;48.490;9.200;2023-08-20T00:57:39;26.30;44.40
652;DHT22;310;48.490;9.200;2023-08-20T01:00:05;26.20;44.80
652;DHT22;310;48.490;9.200;2023-08-20T01:02:37;26.10;45.00
652;DHT22;310;48.490;9.200;2023-08-20T01:05:05;26.10;45.40
652;DHT22;310;48.490;9.200;2023-08-20T01:10:39;26.10;46.60
652;DHT22;310;48.490;9.200;2023-08-20T01:13:06;26.00;45.70
652;DHT22;310;48.490;9.200;2023-08-20T01:15:32;25.90;46.00
652;DHT22;310;48.490;9.200;2023-08-20T01:17:58;25.90;45.90
652;DHT22;310;48.490;9.200;2023-08-20T01:20:29;26.10;45.00
652;DHT22;310;48.490;9.200;2023-08-20T01:23:27;26.30;44.00
652;DHT22;310;48.490;9.200;2023-08-20T01:26:14;26.30;44.70
652;DHT22;310;48.490;9.200;2023-08-20T01:28:46;26.10;44.90
652;DHT22;310;48.490;9.200;2023-08-20T01:31:12;26.20;44.90
652;DHT22;310;48.490;9.200;2023-08-20T01:33:38;26.10;44.70
652;DHT22;310;48.490;9.200;2023-08-20T01:36:07;26.00;45.40
652;DHT22;310;48.490;9.200;2023-08-20T01:38:35;26.10;44.70
652;DHT22;310;48.490;9.200;2023-08-20T01:41:01;26.10;45.50
652;DHT22;310;48.490;9.200;2023-08-20T01:43:27;25.90;45.90
652;DHT22;310;48.490;9.200;2023-08-20T01:45:53;25.70;46.80
652;DHT22;310;48.490;9.200;2023-08-20T01:48:18;25.60;46.70
652;DHT22;310;48.490;9.200;2023-08-20T01:50:44;25.80;46.00
652;DHT22;310;48.490;9.200;2023-08-20T01:53:11;25.60;46.70
652;DHT22;310;48.490;9.200;2023-08-20T01:55:37;25.50;46.60
652;DHT22;310;48.490;9.200;2023-08-20T01:58:03;25.60;46.70
652;DHT22;310;48.490;9.200;2023-08-20T02:00:28;25.50;46.80
652;DHT22;310;48.490;9.200;2023-08-20T02:02:56;25.60;46.80
652;DHT22;310;48.490;9.200;2023-08-20T02:05:21;25.70;46.60
652;DHT22;310;48.490;9.200;2023-08-20T02:07:47;25.60;46.70
652;DHT22;310;48.490;9.200;2023-08-20T02:10:13;25.60;46.70
652;DHT22;310;48.490;9.200;2023-08-20T02:12:40;25.60;47.50
652;DHT22;310;48.490;9.200;2023-08-20T02:15:06;25.70;47.60
652;DHT22;310;48.490;9.200;2023-08-20T02:17:32;25.50;46.70
652;DHT22;310;48.490;9.200;2023-08-20T02:19:58;25.50;47.40
652;DHT22;310;48.490;9.200;2023-08-20T02:22:23;25.40;47.10
652;DHT22;310;48.490;9.200;2023-08-20T02:24:49;25.50;47.40
652;DHT22;310;48.490;9.200;2023-08-20T02:27:14;25.50;47.40
652;DHT22;310;48.490;9.200;2023-08-20T02:29:40;25.50;47.70
652;DHT22;310;48.490;9.200;2023-08-20T02:32:05;25.60;46.70
652;DHT22;310;48.490;9.200;2023-08-20T02:34:31;25.70;46.80
652;DHT22;310;48.490;9.200;2023-08-20T02:36:56;25.70;46.90
652;DHT22;310;48.490;9.200;2023-08-20T02:39:22;25.80;46.30
652;DHT22;310;48.490;9.200;2023-08-20T02:41:49;25.60;46.70
652;DHT22;310;48.490;9.200;2023-08-20T02:44:15;25.60;46.80
652;DHT22;310;48.490;9.200;2023-08-20T02:46:40;25.50;47.50
652;DHT22;310;48.490;9.200;2023-08-20T02:49:06;25.40;47.70
652;DHT22;310;48.490;9.200;2023-08-20T02:51:32;25.40;49.10
652;DHT22;310;48.490;9.200;2023-08-20T02:53:57;25.40;47.80
652;DHT22;310;48.490;9.200;2023-08-20T02:56:23;25.60;46.70
652;DHT22;310;48.490;9.200;2023-08-20T02:58:48;25.70;46.40
652;DHT22;310;48.490;9.200;2023-08-20T03:01:18;25.50;46.70
652;DHT22;310;48.490;9.200;2023-08-20T03:03:44;25.50;46.70
652;DHT22;310;48.490;9.200;2023-08-20T03:06:10;25.30;48.30
652;DHT22;310;48.490;9.200;2023-08-20T03:08:35;25.30;48.50
652;DHT22;310;48.490;9.200;2023-08-20T03:11:01;25.40;48.60
652;DHT22;310;48.490;9.200;2023-08-20T03:13:26;25.30;47.80
652;DHT22;310;48.490;9.200;2023-08-20T03:15:52;25.30;48.10
652;DHT22;310;48.490;9.200;2023-08-20T03:18:17;25.30;49.50
652;DHT22;310;48.490;9.200;2023-08-20T03:20:43;25.30;47.90
652;DHT22;310;48.490;9.200;2023-08-20T03:23:08;25.20;48.40
652;DHT22;310;48.490;9.200;2023-08-20T03:25:34;25.20;48.40
652;DHT22;310;48.490;9.200;2023-08-20T03:27:59;25.10;48.90
652;DHT22;310;48.490;9.200;2023-08-20T03:30:25;25.10;49.30
652;DHT22;310;48.490;9.200;2023-08-20T03:32:51;25.10;49.30
652;DHT22;310;48.490;9.200;2023-08-20T03:35:16;24.90;50.00
652;DHT22;310;48.490;9.200;2023-08-20T03:37:42;24.90;49.50
652;DHT22;310;48.490;9.200;2023-08-20T03:40:07;24.90;50.00
652;DHT22;310;48.490;9.200;2023-08-20T03:42:33;24.90;49.80
652;DHT22;310;48.490;9.200;2023-08-20T03:44:59;24.90;50.00
652;DHT22;310;48.490;9.200;2023-08-20T03:47:24;24.90;49.70
652;DHT22;310;48.490;9.200;2023-08-20T03:49:50;24.90;50.20
652;DHT22;310;48.490;9.200;2023-08-20T03:52:15;25.00;49.70
652;DHT22;310;48.490;9.200;2023-08-20T03:54:41;24.90;49.50
652;DHT22;310;48.490;9.200;2023-08-20T03:57:07;24.90;49.90
652;DHT22;310;48.490;9.200;2023-08-20T03:59:32;24.60;51.00
652;DHT22;310;48.490;9.200;2023-08-20T04:01:58;24.20;53.30
652;DHT22;310;48.490;9.200;2023-08-20T04:04:23;24.60;51.20
652;DHT22;310;48.490;9.200;2023-08-20T04:06:49;24.70;51.40
652;DHT22;310;48.490;9.200;2023-08-20T04:09:15;24.90;50.00
652;DHT22;310;48.490;9.200;2023-08-20T04:11:42;24.80;50.20
652;DHT22;310;48.490;9.200;2023-08-20T04:14:08;24.80;50.10
652;DHT22;310;48.490;9.200;2023-08-20T04:16:33;24.70;50.80
652;DHT22;310;48.490;9.200;2023-08-20T04:18:59;24.60;51.60
652;DHT22;310;48.490;9.200;2023-08-20T04:21:24;24.60;50.80
652;DHT22;310;48.490;9.200;2023-08-20T04:23:50;24.60;51.00
652;DHT22;310;48.490;9.200;2023-08-20T04:26:16;24.60;50.80
652;DHT22;310;48.490;9.200;2023-08-20T04:28:41;24.60;51.10
652;DHT22;310;48.490;9.200;2023-08-20T04:31:07;24.70;51.00
652;DHT22;310;48.490;9.200;2023-08-20T04:33:32;24.60;51.30
652;DHT22;310;48.490;9.200;2023-08-20T04:35:58;24.70;51.80
652;DHT22;310;48.490;9.200;2023-08-20T04:38:23;24.50;53.70
652;DHT22;310;48.490;9.200;2023-08-20T04:40:49;24.60;53.40
652;DHT22;310;48.490;9.200;2023-08-20T04:43:15;24.80;52.70
652;DHT22;310;48.490;9.200;2023-08-20T04:45:41;25.00;52.60
652;DHT22;310;48.490;9.200;2023-08-20T04:48:07;24.90;51.80
652;DHT22;310;48.490;9.200;2023-08-20T04:50:33;25.00;51.90
652;DHT22;310;48.490;9.200;2023-08-20T04:52:59;25.00;51.10
652;DHT22;310;48.490;9.200;2023-08-20T04:55:26;24.70;51.40
652;DHT22;310;48.490;9.200;2023-08-20T04:57:51;24.00;55.40
652;DHT22;310;48.490;9.200;2023-08-20T05:00:17;23.80;56.70
652;DHT22;310;48.490;9.200;2023-08-20T05:02:43;23.70;56.90
652;DHT22;310;48.490;9.200;2023-08-20T05:05:09;23.60;57.40
652;DHT22;310;48.490;9.200;2023-08-20T05:07:35;23.20;60.90
652;DHT22;310;48.490;9.200;2023-08-20T05:10:01;22.80;62.60
652;DHT22;310;48.490;9.200;2023-08-20T05:12:27;22.50;64.60
652;DHT22;310;48.490;9.200;2023-08-20T05:14:53;22.40;67.30
652;DHT22;310;48.490;9.200;2023-08-20T05:17:18;22.20;70.10
652;DHT22;310;48.490;9.200;2023-08-20T05:19:45;22.80;67.40
652;DHT22;310;48.490;9.200;2023-08-20T05:22:10;23.10;63.60
652;DHT22;310;48.490;9.200;2023-08-20T05:24:37;23.80;59.50
652;DHT22;310;48.490;9.200;2023-08-20T05:27:10;24.20;57.20
652;DHT22;310;48.490;9.200;2023-08-20T05:29:37;24.50;54.80
652;DHT22;310;48.490;9.200;2023-08-20T05:32:03;24.70;54.00
652;DHT22;310;48.490;9.200;2023-08-20T05:34:29;24.80;53.40
652;DHT22;310;48.490;9.200;2023-08-20T05:36:55;25.10;51.90
652;DHT22;310;48.490;9.200;2023-08-20T05:39:20;25.10;51.00
652;DHT22;310;48.490;9.200;2023-08-20T05:41:46;25.20;51.30
652;DHT22;310;48.490;9.200;2023-08-20T05:44:11;25.30;50.60
652;DHT22;310;48.490;9.200;2023-08-20T05:46:37;25.30;51.30
652;DHT22;310;48.490;9.200;2023-08-20T05:49:03;25.30;51.10
652;DHT22;310;48.490;9.200;2023-08-20T05:51:28;25.30;50.60
652;DHT22;310;48.490;9.200;2023-08-20T05:53:54;24.80;52.70
652;DHT22;310;48.490;9.200;2023-08-20T05:56:19;24.10;56.40
652;DHT22;310;48.490;9.200;2023-08-20T05:58:45;23.70;60.30
652;DHT22;310;48.490;9.200;2023-08-20T06:01:11;24.00;59.60
652;DHT22;310;48.490;9.200;2023-08-20T06:03:36;23.80;59.80
652;DHT22;310;48.490;9.200;2023-08-20T06:06:02;23.90;59.90
652;DHT22;310;48.490;9.200;2023-08-20T06:08:28;23.90;60.20
652;DHT22;310;48.490;9.200;2023-08-20T06:10:53;24.10;58.60
652;DHT22;310;48.490;9.200;2023-08-20T06:13:19;24.30;57.40
652;DHT22;310;48.490;9.200;2023-08-20T06:15:44;24.60;54.10
652;DHT22;310;48.490;9.200;2023-08-20T06:18:10;24.40;55.90
652;DHT22;310;48.490;9.200;2023-08-20T06:20:35;24.20;56.50
652;DHT22;310;48.490;9.200;2023-08-20T06:23:01;24.60;55.70
652;DHT22;310;48.490;9.200;2023-08-20T06:25:26;24.70;53.40
652;DHT22;310;48.490;9.200;2023-08-20T06:27:52;24.20;56.80
652;DHT22;310;48.490;9.200;2023-08-20T06:30:17;24.10;57.70
652;DHT22;310;48.490;9.200;2023-08-20T06:32:46;24.30;58.00
652;DHT22;310;48.490;9.200;2023-08-20T06:35:12;24.50;56.20
652;DHT22;310;48.490;9.200;2023-08-20T06:37:40;24.60;55.90
652;DHT22;310;48.490;9.200;2023-08-20T06:40:07;24.80;54.30
652;DHT22;310;48.490;9.200;2023-08-20T06:42:32;24.90;54.00
652;DHT22;310;48.490;9.200;2023-08-20T06:44:58;24.90;54.10
652;DHT22;310;48.490;9.200;2023-08-20T06:47:24;25.20;53.00
652;DHT22;310;48.490;9.200;2023-08-20T06:49:50;25.80;49.70
652;DHT22;310;48.490;9.200;2023-08-20T06:52:16;26.10;49.00
652;DHT22;310;48.490;9.200;2023-08-20T06:54:41;26.30;47.50
652;DHT22;310;48.490;9.200;2023-08-20T06:57:07;26.50;47.40
652;DHT22;310;48.490;9.200;2023-08-20T06:59:32;26.10;47.30
652;DHT22;310;48.490;9.200;2023-08-20T07:01:58;25.80;50.20
652;DHT22;310;48.490;9.200;2023-08-20T07:04:23;26.40;48.00
652;DHT22;310;48.490;9.200;2023-08-20T07:06:50;26.60;46.80
652;DHT22;310;48.490;9.200;2023-08-20T07:09:15;26.80;45.30
652;DHT22;310;48.490;9.200;2023-08-20T07:11:41;26.50;46.70
652;DHT22;310;48.490;9.200;2023-08-20T07:14:07;26.80;46.20
652;DHT22;310;48.490;9.200;2023-08-20T07:16:32;27.20;44.30
652;DHT22;310;48.490;9.200;2023-08-20T07:18:58;27.50;43.50
652;DHT22;310;48.490;9.200;2023-08-20T07:21:24;27.00;45.20
652;DHT22;310;48.490;9.200;2023-08-20T07:23:50;27.40;44.00
652;DHT22;310;48.490;9.200;2023-08-20T07:26:16;27.70;43.30
652;DHT22;310;48.490;9.200;2023-08-20T07:28:42;27.70;44.10
652;DHT22;310;48.490;9.200;2023-08-20T07:31:26;27.70;44.50
652;DHT22;310;48.490;9.200;2023-08-20T07:33:53;28.00;43.30
652;DHT22;310;48.490;9.200;2023-08-20T07:36:21;28.10;43.00
652;DHT22;310;48.490;9.200;2023-08-20T07:38:51;28.10;42.40
652;DHT22;310;48.490;9.200;2023-08-20T07:41:17;28.00;42.70
652;DHT22;310;48.490;9.200;2023-08-20T07:43:43;28.00;42.50
652;DHT22;310;48.490;9.200;2023-08-20T07:46:09;28.10;42.70
652;DHT22;310;48.490;9.200;2023-08-20T07:48:36;28.10;44.00
652;DHT22;310;48.490;9.200;2023-08-20T07:51:02;27.90;43.00
652;DHT22;310;48.490;9.200;2023-08-20T07:53:28;27.30;45.40
652;DHT22;310;48.490;9.200;2023-08-20T07:55:54;26.80;47.60
652;DHT22;310;48.490;9.200;2023-08-20T07:58:20;26.50;49.00
652;DHT22;310;48.490;9.200;2023-08-20T08:00:45;26.60;49.50
652;DHT22;310;48.490;9.200;2023-08-20T08:03:11;26.90;48.40
652;DHT22;310;48.490;9.200;2023-08-20T08:05:36;26.80;48.70
652;DHT22;310;48.490;9.200;2023-08-20T08:08:03;26.60;49.80
652;DHT22;310;48.490;9.200;2023-08-20T08:10:28;26.40;50.40
652;DHT22;310;48.490;9.200;2023-08-20T08:12:54;26.30;52.10
652;DHT22;310;48.490;9.200;2023-08-20T08:15:20;27.00;48.50
652;DHT22;310;48.490;9.200;2023-08-20T08:17:46;27.10;47.80
652;DHT22;310;48.490;9.200;2023-08-20T08:20:11;26.90;48.20
652;DHT22;310;48.490;9.200;2023-08-20T08:22:37;27.10;48.80
652;DHT22;310;48.490;9.200;2023-08-20T08:25:03;27.50;47.10
652;DHT22;310;48.490;9.200;2023-08-20T08:27:28;27.50;47.00
652;DHT22;310;48.490;9.200;2023-08-20T08:29:54;28.20;45.10
652;DHT22;310;48.490;9.200;2023-08-20T08:32:19;28.60;44.40
652;DHT22;310;48.490;9.200;2023-08-20T08:34:45;29.00;42.80
652;DHT22;310;48.490;9.200;2023-08-20T08:37:10;29.30;42.60
652;DHT22;310;48.490;9.200;2023-08-20T08:39:36;29.40;42.30
652;DHT22;310;48.490;9.200;2023-08-20T08:42:03;29.60;40.30
652;DHT22;310;48.490;9.200;2023-08-20T08:44:31;29.30;40.00
652;DHT22;310;48.490;9.200;2023-08-20T08:47:04;29.20;40.90
652;DHT22;310;48.490;9.200;2023-08-20T08:49:33;29.50;40.50
652;DHT22;310;48.490;9.200;2023-08-20T08:51:59;29.10;40.80
652;DHT22;310;48.490;9.200;2023-08-20T08:54:27;28.20;42.60
652;DHT22;310;48.490;9.200;2023-08-20T08:56:53;28.30;42.80
652;DHT22;310;48.490;9.200;2023-08-20T08:59:19;28.40;42.10
652;DHT22;310;48.490;9.200;2023-08-20T09:01:45;28.70;42.40
652;DHT22;310;48.490;9.200;2023-08-20T09:04:10;28.50;42.10
652;DHT22;310;48.490;9.200;2023-08-20T09:06:52;29.00;41.60
652;DHT22;310;48.490;9.200;2023-08-20T09:09:19;29.50;40.00
652;DHT22;310;48.490;9.200;2023-08-20T09:11:45;29.20;39.10
652;DHT22;310;48.490;9.200;2023-08-20T09:14:30;28.90;41.40
652;DHT22;310;48.490;9.200;2023-08-20T09:17:01;29.20;39.60
652;DHT22;310;48.490;9.200;2023-08-20T09:19:35;29.30;39.70
652;DHT22;310;48.490;9.200;2023-08-20T09:22:00;29.70;40.20
652;DHT22;310;48.490;9.200;2023-08-20T09:24:45;30.40;36.50
652;DHT22;310;48.490;9.200;2023-08-20T09:27:12;30.40;36.60
652;DHT22;310;48.490;9.200;2023-08-20T09:29:47;30.40;36.70
652;DHT22;310;48.490;9.200;2023-08-20T09:32:15;30.60;36.00
652;DHT22;310;48.490;9.200;2023-08-20T09:34:41;30.40;35.40
652;DHT22;310;48.490;9.200;2023-08-20T09:37:12;30.00;36.30
652;DHT22;310;48.490;9.200;2023-08-20T09:39:38;29.60;37.50
652;DHT22;310;48.490;9.200;2023-08-20T09:42:04;30.30;36.20
652;DHT22;310;48.490;9.200;2023-08-20T09:44:35;30.70;34.80
652;DHT22;310;48.490;9.200;2023-08-20T09:47:22;30.90;34.90
652;DHT22;310;48.490;9.200;2023-08-20T09:49:50;31.20;34.70
652;DHT22;310;48.490;9.200;2023-08-20T09:52:25;31.30;33.80
652;DHT22;310;48.490;9.200;2023-08-20T09:55:08;31.40;33.60
652;DHT22;310;48.490;9.200;2023-08-20T09:57:37;31.50;32.80
652;DHT22;310;48.490;9.200;2023-08-20T10:00:04;31.70;32.80
652;DHT22;310;48.490;9.200;2023-08-20T10:02:40;32.00;31.40
652;DHT22;310;48.490;9.200;2023-08-20T10:05:06;32.10;31.90
652;DHT22;310;48.490;9.200;2023-08-20T10:07:34;31.90;30.00
652;DHT22;310;48.490;9.200;2023-08-20T10:10:02;31.70;31.90
652;DHT22;310;48.490;9.200;2023-08-20T10:12:28;31.90;32.10
652;DHT22;310;48.490;9.200;2023-08-20T10:14:56;31.90;31.70
652;DHT22;310;48.490;9.200;2023-08-20T10:17:25;32.20;30.80
652;DHT22;310;48.490;9.200;2023-08-20T10:19:53;32.30;29.40
652;DHT22;310;48.490;9.200;2023-08-20T10:22:19;32.60;30.00
652;DHT22;310;48.490;9.200;2023-08-20T10:24:52;32.50;28.90
652;DHT22;310;48.490;9.200;2023-08-20T10:27:26;32.50;29.30
652;DHT22;310;48.490;9.200;2023-08-20T10:29:55;32.70;29.00
652;DHT22;310;48.490;9.200;2023-08-20T10:32:43;32.80;27.80
652;DHT22;310;48.490;9.200;2023-08-20T10:35:06;32.60;27.80
652;DHT22;310;48.490;9.200;2023-08-20T10:37:34;32.60;26.90
652;DHT22;310;48.490;9.200;2023-08-20T10:40:01;32.40;26.00
652;DHT22;310;48.490;9.200;2023-08-20T10:42:28;32.70;28.60
652;DHT22;310;48.490;9.200;2023-08-20T10:50:05;32.90;26.60
652;DHT22;310;48.490;9.200;2023-08-20T10:52:38;31.80;27.90
652;DHT22;310;48.490;9.200;2023-08-20T10:55:04;31.60;28.60
652;DHT22;310;48.490;9.200;2023-08-20T10:57:35;31.60;29.40
652;DHT22;310;48.490;9.200;2023-08-20T11:00:03;32.90;28.40
652;DHT22;310;48.490;9.200;2023-08-20T11:02:38;32.90;27.40
652;DHT22;310;48.490;9.200;2023-08-20T11:05:09;33.50;28.10
652;DHT22;310;48.490;9.200;2023-08-20T11:07:41;33.60;28.60
652;DHT22;310;48.490;9.200;2023-08-20T11:10:07;34.10;28.20
652;DHT22;310;48.490;9.200;2023-08-20T11:12:33;34.20;26.10
652;DHT22;310;48.490;9.200;2023-08-20T11:15:01;34.20;26.60
652;DHT22;310;48.490;9.200;2023-08-20T11:19:54;33.90;25.40
652;DHT22;310;48.490;9.200;2023-08-20T11:22:20;34.00;24.50
652;DHT22;310;48.490;9.200;2023-08-20T11:24:45;34.30;27.50
652;DHT22;310;48.490;9.200;2023-08-20T11:27:11;34.20;27.90
652;DHT22;310;48.490;9.200;2023-08-20T11:29:41;34.80;23.60
652;DHT22;310;48.490;9.200;2023-08-20T11:32:08;35.20;23.40
652;DHT22;310;48.490;9.200;2023-08-20T11:34:35;35.80;23.60
652;DHT22;310;48.490;9.200;2023-08-20T11:37:01;35.80;23.90
652;DHT22;310;48.490;9.200;2023-08-20T11:39:29;36.20;22.00
652;DHT22;310;48.490;9.200;2023-08-20T11:41:54;35.40;22.40
652;DHT22;310;48.490;9.200;2023-08-20T11:44:21;36.70;20.90
652;DHT22;310;48.490;9.200;2023-08-20T11:46:47;36.80;21.80
652;DHT22;310;48.490;9.200;2023-08-20T11:49:13;37.20;20.70
652;DHT22;310;48.490;9.200;2023-08-20T11:51:41;37.30;21.00
652;DHT22;310;48.490;9.200;2023-08-20T11:54:10;37.70;20.30
652;DHT22;310;48.490;9.200;2023-08-20T11:56:36;38.30;19.70
652;DHT22;310;48.490;9.200;2023-08-20T11:59:04;37.90;19.80
652;DHT22;310;48.490;9.200;2023-08-20T12:01:32;38.40;19.30
652;DHT22;310;48.490;9.200;2023-08-20T12:04:04;38.60;17.80
652;DHT22;310;48.490;9.200;2023-08-20T12:06:30;37.50;18.90
652;DHT22;310;48.490;9.200;2023-08-20T12:08:57;35.90;21.30
652;DHT22;310;48.490;9.200;2023-08-20T12:11:27;36.00;21.90
652;DHT22;310;48.490;9.200;2023-08-20T12:13:52;37.00;20.80
652;DHT22;310;48.490;9.200;2023-08-20T12:16:18;37.30;21.10
652;DHT22;310;48.490;9.200;2023-08-20T12:18:46;38.00;20.50
652;DHT22;310;48.490;9.200;2023-08-20T12:21:11;38.80;18.60
652;DHT22;310;48.490;9.200;2023-08-20T12:23:37;39.10;18.10
652;DHT22;310;48.490;9.200;2023-08-20T12:26:03;39.30;17.60
652;DHT22;310;48.490;9.200;2023-08-20T12:28:29;39.30;16.60
652;DHT22;310;48.490;9.200;2023-08-20T12:30:54;39.60;18.10
652;DHT22;310;48.490;9.200;2023-08-20T12:33:20;38.80;17.50
652;DHT22;310;48.490;9.200;2023-08-20T12:35:46;37.90;18.30
652;DHT22;310;48.490;9.200;2023-08-20T12:38:12;38.80;17.60
652;DHT22;310;48.490;9.200;2023-08-20T12:40:38;39.50;17.90
652;DHT22;310;48.490;9.200;2023-08-20T12:43:03;39.90;16.00
652;DHT22;310;48.490;9.200;2023-08-20T12:45:29;40.30;17.10
652;DHT22;310;48.490;9.200;2023-08-20T12:47:55;39.60;16.70
652;DHT22;310;48.490;9.200;2023-08-20T12:50:21;39.90;16.00
652;DHT22;310;48.490;9.200;2023-08-20T12:52:47;38.80;17.30
652;DHT22;310;48.490;9.200;2023-08-20T12:55:14;39.50;17.60
652;DHT22;310;48.490;9.200;2023-08-20T12:57:56;39.80;15.30
652;DHT22;310;48.490;9.200;2023-08-20T13:00:23;39.20;16.50
652;DHT22;310;48.490;9.200;2023-08-20T13:02:50;39.70;16.70
652;DHT22;310;48.490;9.200;2023-08-20T13:05:16;40.10;16.60
652;DHT22;310;48.490;9.200;2023-08-20T13:07:42;40.10;14.90
652;DHT22;310;48.490;9.200;2023-08-20T13:10:08;39.90;15.40
652;DHT22;310;48.490;9.200;2023-08-20T13:12:34;39.80;16.20
652;DHT22;310;48.490;9.200;2023-08-20T13:15:00;39.70;16.70
652;DHT22;310;48.490;9.200;2023-08-20T13:17:27;39.40;16.30
652;DHT22;310;48.490;9.200;2023-08-20T13:19:53;38.30;16.30
652;DHT22;310;48.490;9.200;2023-08-20T13:22:18;38.00;18.20
652;DHT22;310;48.490;9.200;2023-08-20T13:24:44;38.20;17.00
652;DHT22;310;48.490;9.200;2023-08-20T13:27:09;37.80;16.90
652;DHT22;310;48.490;9.200;2023-08-20T13:29:35;36.10;19.00
652;DHT22;310;48.490;9.200;2023-08-20T13:32:00;36.20;20.30
652;DHT22;310;48.490;9.200;2023-08-20T13:34:26;36.60;18.30
652;DHT22;310;48.490;9.200;2023-08-20T13:36:52;36.50;18.50
652;DHT22;310;48.490;9.200;2023-08-20T13:41:44;36.30;19.30
652;DHT22;310;48.490;9.200;2023-08-20T13:46:36;37.10;18.20
652;DHT22;310;48.490;9.200;2023-08-20T13:49:02;37.30;18.60
652;DHT22;310;48.490;9.200;2023-08-20T13:51:29;37.60;18.50
652;DHT22;310;48.490;9.200;2023-08-20T13:53:54;37.40;19.40
652;DHT22;310;48.490;9.200;2023-08-20T13:56:20;37.50;20.10
652;DHT22;310;48.490;9.200;2023-08-20T13:58:45;37.50;19.00
652;DHT22;310;48.490;9.200;2023-08-20T14:01:11;37.70;18.20
652;DHT22;310;48.490;9.200;2023-08-20T14:03:39;36.70;18.90
652;DHT22;310;48.490;9.200;2023-08-20T14:06:05;37.10;19.60
652;DHT22;310;48.490;9.200;2023-08-20T14:08:30;37.20;18.70
652;DHT22;310;48.490;9.200;2023-08-20T14:10:56;37.10;19.40
652;DHT22;310;48.490;9.200;2023-08-20T14:13:22;37.50;19.40
652;DHT22;310;48.490;9.200;2023-08-20T14:15:47;37.60;18.90
652;DHT22;310;48.490;9.200;2023-08-20T14:18:13;37.70;18.40
652;DHT22;310;48.490;9.200;2023-08-20T14:20:38;36.70;19.30
652;DHT22;310;48.490;9.200;2023-08-20T14:23:04;36.70;19.70
652;DHT22;310;48.490;9.200;2023-08-20T14:25:30;37.40;17.50
652;DHT22;310;48.490;9.200;2023-08-20T14:27:55;37.40;18.10
652;DHT22;310;48.490;9.200;2023-08-20T14:30:21;37.70;19.60
652;DHT22;310;48.490;9.200;2023-08-20T14:32:47;37.30;17.20
652;DHT22;310;48.490;9.200;2023-08-20T14:35:12;36.90;19.50
652;DHT22;310;48.490;9.200;2023-08-20T14:37:38;36.20;18.30
652;DHT22;310;48.490;9.200;2023-08-20T14:40:04;36.10;19.10
652;DHT22;310;48.490;9.200;2023-08-20T14:42:33;35.90;21.80
652;DHT22;310;48.490;9.200;2023-08-20T14:44:58;37.00;20.10
652;DHT22;310;48.490;9.200;2023-08-20T14:47:24;37.00;18.90
652;DHT22;310;48.490;9.200;2023-08-20T14:49:49;37.40;19.60
652;DHT22;310;48.490;9.200;2023-08-20T14:52:15;37.40;17.80
652;DHT22;310;48.490;9.200;2023-08-20T14:54:41;37.40;18.90
652;DHT22;310;48.490;9.200;2023-08-20T14:57:07;37.50;18.30
652;DHT22;310;48.490;9.200;2023-08-20T14:59:33;37.70;18.30
652;DHT22;310;48.490;9.200;2023-08-20T15:01:59;37.40;18.10
652;DHT22;310;48.490;9.200;2023-08-20T15:04:25;36.50;19.30
652;DHT22;310;48.490;9.200;2023-08-20T15:06:51;36.50;20.20
652;DHT22;310;48.490;9.200;2023-08-20T15:09:16;36.70;20.20
652;DHT22;310;48.490;9.200;2023-08-20T15:11:42;37.10;18.70
652;DHT22;310;48.490;9.200;2023-08-20T15:14:08;37.20;19.30
652;DHT22;310;48.490;9.200;2023-08-20T15:16:33;37.10;20.00
652;DHT22;310;48.490;9.200;2023-08-20T15:18:59;36.80;19.20
652;DHT22;310;48.490;9.200;2023-08-20T15:21:25;36.60;20.70
652;DHT22;310;48.490;9.200;2023-08-20T15:23:51;36.90;19.10
652;DHT22;310;48.490;9.200;2023-08-20T15:26:16;37.00;18.60
652;DHT22;310;48.490;9.200;2023-08-20T15:28:42;36.90;19.60
652;DHT22;310;48.490;9.200;2023-08-20T15:31:08;36.60;20.40
652;DHT22;310;48.490;9.200;2023-08-20T15:33:34;36.50;19.30
652;DHT22;310;48.490;9.200;2023-08-20T15:35:59;36.30;19.60
652;DHT22;310;48.490;9.200;2023-08-20T15:38:26;35.40;20.50
652;DHT22;310;48.490;9.200;2023-08-20T15:40:56;35.40;21.50
652;DHT22;310;48.490;9.200;2023-08-20T15:43:23;35.90;20.70
652;DHT22;310;48.490;9.200;2023-08-20T15:45:49;36.20;19.80
652;DHT22;310;48.490;9.200;2023-08-20T15:48:14;36.20;20.90
652;DHT22;310;48.490;9.200;2023-08-20T15:50:40;35.60;20.10
652;DHT22;310;48.490;9.200;2023-08-20T15:53:06;35.80;19.80
652;DHT22;310;48.490;9.200;2023-08-20T15:55:32;34.90;20.30
652;DHT22;310;48.490;9.200;2023-08-20T15:57:57;34.80;21.20
652;DHT22;310;48.490;9.200;2023-08-20T16:00:23;35.00;21.90
652;DHT22;310;48.490;9.200;2023-08-20T16:02:49;35.20;22.60
652;DHT22;310;48.490;9.200;2023-08-20T16:05:15;35.50;20.30
652;DHT22;310;48.490;9.200;2023-08-20T16:07:41;35.50;20.80
652;DHT22;310;48.490;9.200;2023-08-20T16:10:07;35.50;20.30
652;DHT22;310;48.490;9.200;2023-08-20T16:12:33;35.60;20.50
652;DHT22;310;48.490;9.200;2023-08-20T16:15:00;35.50;20.60
652;DHT22;310;48.490;9.200;2023-08-20T16:17:25;35.70;20.50
652;DHT22;310;48.490;9.200;2023-08-20T16:19:51;35.50;20.50
652;DHT22;310;48.490;9.200;2023-08-20T16:22:16;35.70;20.60
652;DHT22;310;48.490;9.200;2023-08-20T16:24:42;31.10;18.60
652;DHT22;310;48.490;9.200;2023-08-20T16:27:08;35.30;21.50
652;DHT22;310;48.490;9.200;2023-08-20T16:29:33;35.20;21.80
652;DHT22;310;48.490;9.200;2023-08-20T16:31:59;34.50;22.80
652;DHT22;310;48.490;9.200;2023-08-20T16:34:24;34.70;22.30
652;DHT22;310;48.490;9.200;2023-08-20T16:36:50;34.70;22.80
652;DHT22;310;48.490;9.200;2023-08-20T16:39:16;34.90;22.90
652;DHT22;310;48.490;9.200;2023-08-20T16:41:42;34.90;23.30
652;DHT22;310;48.490;9.200;2023-08-20T16:44:07;35.00;22.60
652;DHT22;310;48.490;9.200;2023-08-20T16:46:34;34.70;22.70